Time;durP1;ratioP1;P1;durP2;ratioP2;P2;SDS_P1;SDS_P2;PMS_P1;PMS_P2;Temp;Humidity;BMP_temperature;BMP_pressure;BME280_temperature;BME280_humidity;BME280_pressure;Samples;Min_cycle;Max_cycle;Signal;HPM_P1;HPM_P2
2022/12/04 00:01:15;;;;;;;7.28;4.03;;;9.50;85.50;;;;;;5073665;28;20029;-11
2022/12/04 00:03:41;;;;;;;6.72;4.07;;;9.50;85.50;;;;;;5074151;28;20031;-12
2022/12/04 00:06:14;;;;;;;5.95;3.70;;;9.50;85.40;;;;;;5074138;28;20376;-12
2022/12/04 00:08:40;;;;;;;7.03;4.15;;;9.60;85.40;;;;;;5073631;28;20043;-12
2022/12/04 00:11:09;;;;;;;6.70;4.20;;;9.60;85.00;;;;;;5073534;28;20123;-12
2022/12/04 00:13:36;;;;;;;6.65;3.90;;;9.60;84.90;;;;;;5074044;28;20040;-12
2022/12/04 00:16:07;;;;;;;7.30;4.57;;;9.60;84.60;;;;;;5073651;28;20028;-12
2022/12/04 00:18:34;;;;;;;6.40;3.85;;;9.60;84.60;;;;;;5073989;28;20124;-13
2022/12/04 00:21:04;;;;;;;7.43;4.32;;;9.70;84.70;;;;;;5073371;28;20036;-12
2022/12/04 00:23:31;;;;;;;7.97;4.35;;;9.70;84.60;;;;;;5073496;28;20039;-11
2022/12/04 00:26:03;;;;;;;7.55;3.80;;;9.70;84.30;;;;;;5073487;28;20430;-12
2022/12/04 00:28:29;;;;;;;6.32;3.83;;;9.80;84.10;;;;;;5073590;28;20048;-12
2022/12/04 00:30:55;;;;;;;6.78;4.05;;;9.80;84.00;;;;;;5073354;28;20442;-12
2022/12/04 00:33:21;;;;;;;5.88;3.75;;;9.80;84.00;;;;;;5073585;28;20460;-12
2022/12/04 00:35:47;;;;;;;6.07;3.55;;;9.80;83.80;;;;;;5073311;28;20043;-12
2022/12/04 00:38:13;;;;;;;7.20;3.15;;;9.80;83.70;;;;;;5073294;28;20017;-12
2022/12/04 00:40:47;;;;;;;4.25;3.00;;;9.80;83.80;;;;;;5073492;28;20070;-11
2022/12/04 00:43:13;;;;;;;;;;;9.80;83.30;;;;;;5073644;28;20036;-12
2022/12/04 00:45:39;;;;;;;6.45;3.60;;;9.90;83.30;;;;;;5073483;28;19989;-12
2022/12/04 00:48:04;;;;;;;6.57;3.45;;;9.90;83.20;;;;;;5073013;28;20127;-12
2022/12/04 00:50:31;;;;;;;5.97;3.30;;;9.90;82.80;;;;;;5073361;28;20032;-12
2022/12/04 00:52:57;;;;;;;4.72;3.28;;;9.90;82.70;;;;;;5072641;28;20031;-12
2022/12/04 00:55:23;;;;;;;4.70;3.10;;;9.90;82.50;;;;;;5072957;28;20029;-13
2022/12/04 00:57:49;;;;;;;5.47;3.40;;;9.90;82.40;;;;;;5073233;28;20025;-13
2022/12/04 01:00:15;;;;;;;4.57;3.05;;;9.90;82.30;;;;;;5073069;28;20047;-13
2022/12/04 01:02:41;;;;;;;5.55;3.30;;;9.90;82.10;;;;;;5073162;28;20024;-11
2022/12/04 01:05:07;;;;;;;5.38;3.10;;;10.00;81.80;;;;;;5072971;28;20093;-12
2022/12/04 01:07:39;;;;;;;4.50;2.85;;;10.00;82.00;;;;;;5072842;28;20056;-12
2022/12/04 01:10:08;;;;;;;4.28;2.80;;;10.00;82.00;;;;;;5071234;28;20075;-11
2022/12/04 01:12:33;;;;;;;5.60;3.15;;;10.00;81.80;;;;;;5072798;28;20082;-11
2022/12/04 01:15:00;;;;;;;4.80;3.30;;;10.00;81.80;;;;;;5072803;28;20103;-12
2022/12/04 01:17:26;;;;;;;4.72;3.28;;;10.10;81.80;;;;;;5072668;28;20032;-12
2022/12/04 01:19:52;;;;;;;5.68;3.20;;;10.00;81.70;;;;;;5072947;28;20028;-12
2022/12/04 01:22:18;;;;;;;4.90;3.30;;;10.00;81.50;;;;;;5072708;28;20126;-12
2022/12/04 01:24:44;;;;;;;4.80;3.25;;;10.00;81.80;;;;;;5072745;28;20025;-11
2022/12/04 01:27:10;;;;;;;5.95;3.28;;;10.10;81.70;;;;;;5070952;28;20032;-12
2022/12/04 01:29:37;;;;;;;4.90;3.17;;;10.10;81.70;;;;;;5072707;28;20388;-13
2022/12/04 01:32:03;;;;;;;6.75;3.38;;;10.10;81.60;;;;;;5072642;28;20094;-12
2022/12/04 01:34:29;;;;;;;6.18;3.50;;;10.10;81.50;;;;;;5072654;28;20400;-12
2022/12/04 01:36:55;;;;;;;5.13;3.08;;;10.10;81.40;;;;;;5072361;28;20085;-12
2022/12/04 01:39:21;;;;;;;5.45;3.30;;;10.10;81.20;;;;;;5072510;28;20013;-12
2022/12/04 01:41:47;;;;;;;4.30;2.90;;;10.10;81.10;;;;;;5073166;28;20028;-11
2022/12/04 01:44:16;;;;;;;5.22;3.60;;;10.20;81.30;;;;;;5072423;28;20496;-12
2022/12/04 01:46:46;;;;;;;5.40;3.20;;;10.10;81.40;;;;;;5072303;28;20028;-12
2022/12/04 01:49:20;;;;;;;5.38;3.20;;;10.10;81.20;;;;;;5072109;28;20047;-12
2022/12/04 01:51:50;;;;;;;4.75;2.83;;;10.20;81.00;;;;;;5072731;28;20040;-12
2022/12/04 01:54:27;;;;;;;4.43;2.85;;;10.20;81.20;;;;;;5072433;28;20485;-13
2022/12/04 01:57:15;;;;;;;8.65;3.50;;;10.20;81.30;;;;;;5072432;28;20385;-13
2022/12/04 01:59:56;;;;;;;5.80;2.88;;;10.20;81.10;;;;;;5072343;28;20029;-14
2022/12/04 02:02:33;;;;;;;4.32;2.90;;;10.20;81.50;;;;;;5072512;28;20031;-13
2022/12/04 02:05:04;;;;;;;4.00;2.75;;;10.20;81.40;;;;;;5074435;28;20024;-13
2022/12/04 02:07:31;;;;;;;5.70;3.13;;;10.20;81.60;;;;;;5076105;28;20480;-12
2022/12/04 02:10:02;;;;;;;3.97;2.70;;;10.20;81.40;;;;;;5075901;28;20072;-12
2022/12/04 02:12:40;;;;;;;4.22;3.10;;;10.20;81.50;;;;;;5076112;28;20568;-11
2022/12/04 02:15:37;;;;;;;4.32;2.85;;;10.20;81.50;;;;;;5076088;28;20138;-12
2022/12/04 02:18:15;;;;;;;6.40;2.88;;;10.20;81.30;;;;;;5075871;28;20028;-11
2022/12/04 02:21:04;;;;;;;4.78;3.38;;;10.30;81.30;;;;;;5076248;28;20024;-12
2022/12/04 02:23:39;;;;;;;6.00;3.10;;;10.20;81.40;;;;;;5075881;28;20166;-12
2022/12/04 02:26:23;;;;;;;5.40;3.00;;;10.30;81.50;;;;;;5076074;28;20059;-12
2022/12/04 02:28:51;;;;;;;5.38;3.20;;;10.30;81.40;;;;;;5075823;28;20040;-13
2022/12/04 02:31:21;;;;;;;3.72;2.70;;;10.30;81.40;;;;;;5075941;28;20162;-12
2022/12/04 02:34:09;;;;;;;4.20;2.92;;;10.30;81.50;;;;;;5075685;28;20024;-11
2022/12/04 02:37:01;;;;;;;6.28;3.47;;;10.30;81.60;;;;;;5076008;28;20042;-12
2022/12/04 02:39:41;;;;;;;4.95;3.13;;;10.30;81.40;;;;;;5076257;28;20384;-12
2022/12/04 02:42:20;;;;;;;5.82;3.50;;;10.30;81.60;;;;;;5075584;28;20032;-11
2022/12/04 02:44:51;;;;;;;4.95;3.15;;;10.30;81.50;;;;;;5075584;28;20036;-12
2022/12/04 02:47:20;;;;;;;6.28;3.53;;;10.30;81.40;;;;;;5075290;28;20129;-12
2022/12/04 02:49:53;;;;;;;7.18;3.70;;;10.30;81.70;;;;;;5075292;28;20041;-13
2022/12/04 02:52:25;;;;;;;6.72;3.70;;;10.30;81.60;;;;;;5075325;28;20162;-13
2022/12/04 02:54:57;;;;;;;6.40;3.38;;;10.30;81.70;;;;;;5075454;28;20058;-13
2022/12/04 02:57:30;;;;;;;5.80;3.20;;;10.30;81.60;;;;;;5075534;28;20016;-12
2022/12/04 02:59:57;;;;;;;5.97;3.50;;;10.30;81.80;;;;;;5075463;28;20033;-12
2022/12/04 03:03:00;;;;;;;5.20;3.47;;;10.30;82.20;;;;;;5075054;28;20021;-13
2022/12/04 03:05:42;;;;;;;4.93;3.22;;;10.30;82.20;;;;;;5033168;28;20616;-11
2022/12/04 03:08:14;;;;;;;5.80;3.40;;;10.30;82.40;;;;;;5032866;28;20049;-11
2022/12/04 03:10:49;;;;;;;5.57;3.72;;;10.30;82.50;;;;;;5033246;28;20489;-12
2022/12/04 03:13:40;;;;;;;6.57;3.85;;;10.30;82.40;;;;;;5032926;28;20040;-12
2022/12/04 03:16:06;;;;;;;5.93;3.45;;;10.30;82.40;;;;;;5032417;28;20032;-11
2022/12/04 03:18:41;;;;;;;7.30;4.00;;;10.30;82.50;;;;;;5032778;28;20044;-11
2022/12/04 03:21:15;;;;;;;8.77;3.90;;;10.30;82.50;;;;;;5032541;28;20050;-12
2022/12/04 03:24:10;;;;;;;8.25;3.90;;;10.30;82.40;;;;;;5032747;28;20116;-11
2022/12/04 03:26:50;;;;;;;6.82;3.78;;;10.30;82.20;;;;;;5032304;28;20116;-12
2022/12/04 03:29:22;;;;;;;6.88;3.75;;;10.30;82.30;;;;;;5032552;28;20042;-10
2022/12/04 03:31:56;;;;;;;6.97;3.83;;;10.30;82.30;;;;;;5032489;28;20127;-12
2022/12/04 03:34:32;;;;;;;7.50;3.70;;;10.30;82.40;;;;;;5033279;28;20109;-13
2022/12/04 03:37:03;;;;;;;5.20;3.28;;;10.30;82.90;;;;;;5032982;28;20036;-14
2022/12/04 03:39:59;;;;;;;6.70;3.72;;;10.30;83.10;;;;;;5015937;28;20041;-12
2022/12/04 03:42:52;;;;;;;7.10;3.83;;;10.20;83.10;;;;;;5073193;28;20031;-12
2022/12/04 03:45:38;;;;;;;5.57;3.42;;;10.20;83.10;;;;;;5074038;28;20447;-12
2022/12/04 03:48:19;;;;;;;5.90;3.47;;;10.20;83.40;;;;;;5073344;28;20043;-12
2022/12/04 03:50:59;;;;;;;6.35;3.70;;;10.20;83.60;;;;;;5074488;28;20040;-13
2022/12/04 03:53:39;;;;;;;6.13;3.40;;;10.10;83.90;;;;;;5074761;28;20017;-12
2022/12/04 03:56:16;;;;;;;6.30;3.47;;;10.10;84.00;;;;;;5074342;28;20033;-12
2022/12/04 03:58:53;;;;;;;5.32;3.30;;;10.10;83.70;;;;;;5074364;28;20021;-12
2022/12/04 04:01:22;;;;;;;4.75;3.28;;;10.10;83.80;;;;;;5073927;28;20021;-12
2022/12/04 04:03:52;;;;;;;6.07;3.65;;;10.10;83.90;;;;;;5072732;28;20111;-12
2022/12/04 04:06:27;;;;;;;6.28;3.33;;;10.00;83.80;;;;;;5072779;28;20029;-13
2022/12/04 04:08:57;;;;;;;5.97;3.17;;;10.00;83.80;;;;;;5073559;28;20057;-12
2022/12/04 04:11:47;;;;;;;5.55;3.20;;;10.00;83.90;;;;;;5074403;28;20023;-13
2022/12/04 04:25:47;;;;;;;6.28;3.40;;;9.90;84.10;;;;;;5073939;28;20388;-12
2022/12/04 04:28:41;;;;;;;5.47;3.22;;;9.90;84.30;;;;;;5073228;28;20119;-12
2022/12/04 04:31:27;;;;;;;5.90;2.80;;;9.90;84.40;;;;;;5073230;28;20028;-12
2022/12/04 04:34:11;;;;;;;5.43;3.30;;;9.90;84.30;;;;;;5073380;28;20090;-12
2022/12/04 04:36:44;;;;;;;;;;;9.80;83.80;;;;;;5074026;28;20069;-12
2022/12/04 04:39:25;;;;;;;5.53;3.00;;;9.80;83.70;;;;;;5073501;28;20007;-13
2022/12/04 04:42:02;;;;;;;3.75;2.53;;;9.80;83.00;;;;;;5073571;28;20032;-13
2022/12/04 04:44:40;;;;;;;3.85;2.42;;;9.70;82.80;;;;;;5073170;28;20132;-12
2022/12/04 04:47:12;;;;;;;3.55;2.75;;;9.80;83.00;;;;;;5073022;28;20099;-12
2022/12/04 04:49:39;;;;;;;3.65;2.50;;;9.70;82.90;;;;;;5072929;28;20036;-13
2022/12/04 04:52:06;;;;;;;5.30;2.95;;;9.60;83.00;;;;;;5073065;28;20495;-13
2022/12/04 04:54:34;;;;;;;4.15;2.90;;;9.50;82.80;;;;;;5072188;28;20025;-11
2022/12/04 04:57:00;;;;;;;5.55;3.00;;;9.50;83.00;;;;;;5072739;28;20066;-13
2022/12/04 04:59:26;;;;;;;4.47;2.65;;;9.50;83.00;;;;;;5073014;28;20488;-12
2022/12/04 05:01:53;;;;;;;4.40;2.95;;;9.50;82.90;;;;;;5072910;28;20168;-12
2022/12/04 05:04:19;;;;;;;5.15;2.95;;;9.50;83.00;;;;;;5072946;28;20017;-12
2022/12/04 05:06:45;;;;;;;5.20;3.05;;;9.40;82.70;;;;;;5072815;28;20024;-12
2022/12/04 05:09:10;;;;;;;4.68;2.92;;;9.40;82.50;;;;;;5072150;28;20127;-11
2022/12/04 05:11:36;;;;;;;6.45;3.33;;;9.40;82.70;;;;;;5072759;28;20112;-12
2022/12/04 05:14:04;;;;;;;7.40;3.45;;;9.50;82.40;;;;;;5073122;28;20085;-12
2022/12/04 05:16:31;;;;;;;5.18;2.90;;;9.40;82.30;;;;;;5072631;28;20063;-12
2022/12/04 05:21:42;;;;;;;4.28;2.92;;;9.40;82.70;;;;;;5073290;28;20092;-12
2022/12/04 05:24:09;;;;;;;4.78;3.15;;;9.40;82.80;;;;;;5073235;28;20419;-13
2022/12/04 05:26:35;;;;;;;3.90;2.85;;;9.40;82.90;;;;;;5072593;28;20020;-12
2022/12/04 05:29:00;;;;;;;5.80;2.97;;;9.40;83.00;;;;;;5072588;28;20048;-12
2022/12/04 05:31:27;;;;;;;5.40;3.03;;;9.40;82.90;;;;;;5072612;28;20028;-12
2022/12/04 05:33:52;;;;;;;4.90;2.55;;;9.40;83.40;;;;;;5072498;28;20400;-12
2022/12/04 05:36:18;;;;;;;5.07;3.00;;;9.30;83.90;;;;;;5072491;28;20031;-12
2022/12/04 05:38:44;;;;;;;4.97;3.13;;;9.30;84.10;;;;;;5072629;28;20043;-12
2022/12/04 05:41:10;;;;;;;4.45;3.13;;;9.20;84.50;;;;;;5076481;28;20110;-11
2022/12/04 05:43:36;;;;;;;5.50;3.05;;;9.20;84.60;;;;;;5076647;28;20024;-12
2022/12/04 05:46:04;;;;;;;4.93;2.83;;;9.20;84.90;;;;;;5075220;28;20051;-13
2022/12/04 05:48:31;;;;;;;4.65;2.60;;;9.10;85.50;;;;;;5076462;28;20490;-12
2022/12/04 05:50:57;;;;;;;4.80;2.70;;;9.10;85.50;;;;;;5076356;28;20027;-12
2022/12/04 05:53:23;;;;;;;4.60;2.85;;;9.00;85.90;;;;;;5076744;28;20040;-11
2022/12/04 05:56:00;;;;;;;5.45;2.65;;;8.90;86.40;;;;;;5076648;28;20025;-15
2022/12/04 05:58:26;;;;;;;4.93;2.58;;;8.90;86.70;;;;;;5076512;28;20020;-12
2022/12/04 06:00:52;;;;;;;4.13;2.70;;;8.90;86.90;;;;;;5076041;28;20476;-11
2022/12/04 06:03:18;;;;;;;4.00;2.60;;;8.90;86.90;;;;;;5076320;28;20060;-12
2022/12/04 06:05:44;;;;;;;4.05;2.63;;;8.90;87.20;;;;;;5076255;28;20020;-12
2022/12/04 06:08:11;;;;;;;6.70;2.58;;;8.90;87.30;;;;;;5075836;28;20415;-13
2022/12/04 06:10:37;;;;;;;4.80;2.67;;;8.90;87.30;;;;;;5076509;28;20047;-13
2022/12/04 06:13:07;;;;;;;8.57;2.58;;;8.90;87.40;;;;;;5075814;28;20400;-12
2022/12/04 06:15:38;;;;;;;3.83;2.40;;;8.90;87.60;;;;;;5076041;28;20496;-13
2022/12/04 06:18:04;;;;;;;4.82;2.42;;;8.90;87.90;;;;;;5075940;28;20031;-13
2022/12/04 06:20:30;;;;;;;4.25;2.30;;;8.90;87.90;;;;;;5076261;28;20032;-13
2022/12/04 06:22:56;;;;;;;4.20;2.60;;;8.90;87.80;;;;;;5075988;28;20024;-12
2022/12/04 06:25:22;;;;;;;3.33;2.15;;;8.90;87.80;;;;;;5076174;28;20100;-13
2022/12/04 06:27:48;;;;;;;3.72;2.15;;;8.90;87.90;;;;;;5075989;28;20035;-13
2022/12/04 06:30:14;;;;;;;3.28;2.40;;;8.90;87.80;;;;;;5075983;28;20032;-14
2022/12/04 06:32:40;;;;;;;4.28;2.42;;;8.90;87.90;;;;;;5074260;28;20028;-13
2022/12/04 06:35:06;;;;;;;5.60;2.15;;;8.90;88.00;;;;;;5075470;28;20096;-13
2022/12/04 06:37:33;;;;;;;5.57;2.70;;;9.00;87.90;;;;;;5075546;28;20086;-12
2022/12/04 06:39:59;;;;;;;4.03;2.80;;;9.00;87.90;;;;;;5075822;28;20032;-14
2022/12/04 06:42:25;;;;;;;3.92;2.75;;;9.10;87.90;;;;;;5075795;28;20029;-14
2022/12/04 06:44:51;;;;;;;5.50;2.35;;;9.00;88.10;;;;;;5075249;28;20032;-14
2022/12/04 06:47:17;;;;;;;4.25;2.33;;;9.00;88.00;;;;;;5075642;28;20070;-13
2022/12/04 06:49:44;;;;;;;4.18;2.22;;;9.10;88.00;;;;;;5075520;28;20021;-14
2022/12/04 06:52:11;;;;;;;3.40;2.47;;;9.10;88.10;;;;;;5075584;28;20112;-12
2022/12/04 06:54:37;;;;;;;4.07;2.33;;;9.10;88.10;;;;;;5075314;28;20078;-11
2022/12/04 06:57:03;;;;;;;3.38;2.20;;;9.10;88.10;;;;;;5075589;28;20050;-12
2022/12/04 06:59:28;;;;;;;2.95;1.92;;;9.10;88.10;;;;;;5075511;28;20043;-13
2022/12/04 07:01:55;;;;;;;3.05;2.00;;;9.10;88.30;;;;;;5075375;28;20032;-13
2022/12/04 07:04:22;;;;;;;6.07;2.90;;;9.20;88.20;;;;;;5075417;28;20103;-12
2022/12/04 07:06:48;;;;;;;3.33;2.15;;;9.10;88.30;;;;;;5074947;28;20032;-12
2022/12/04 07:09:17;;;;;;;3.63;2.05;;;9.10;88.30;;;;;;5074805;28;20052;-13
2022/12/04 07:11:44;;;;;;;5.50;2.03;;;9.20;88.30;;;;;;5075278;28;20025;-13
2022/12/04 07:16:41;;;;;;;4.28;2.47;;;9.20;88.40;;;;;;5051898;28;20056;-16
2022/12/04 07:19:12;;;;;;;3.13;2.05;;;9.20;88.50;;;;;;5187159;22;20053;-16
2022/12/04 07:21:38;;;;;;;4.10;1.95;;;9.20;88.60;;;;;;5055018;28;20108;-15
2022/12/04 07:24:04;;;;;;;3.50;2.10;;;9.20;88.50;;;;;;5055090;28;20029;-15
2022/12/04 07:26:30;;;;;;;4.63;2.60;;;9.20;88.50;;;;;;5055101;28;20025;-15
2022/12/04 07:28:58;;;;;;;4.53;2.50;;;9.30;88.40;;;;;;5054697;28;20029;-15
2022/12/04 07:31:26;;;;;;;5.60;2.72;;;9.20;88.50;;;;;;5054706;28;20039;-16
2022/12/04 07:33:53;;;;;;;4.80;2.53;;;9.20;88.60;;;;;;5054555;28;20025;-15
2022/12/04 07:36:21;;;;;;;5.18;2.83;;;9.20;88.70;;;;;;5054831;28;20051;-15
2022/12/04 07:38:48;;;;;;;6.07;2.75;;;9.30;88.90;;;;;;5054200;28;20021;-16
2022/12/04 07:41:15;;;;;;;4.80;2.90;;;9.30;88.80;;;;;;5055048;28;20029;-14
2022/12/04 07:43:41;;;;;;;4.30;2.80;;;9.30;88.90;;;;;;5054697;28;20104;-17
2022/12/04 07:46:17;;;;;;;5.22;3.00;;;9.30;88.90;;;;;;5054352;28;20116;-14
2022/12/04 07:48:43;;;;;;;5.40;2.65;;;9.30;88.90;;;;;;5036407;28;20033;-15
2022/12/04 07:51:15;;;;;;;4.85;2.80;;;9.30;88.80;;;;;;5054033;28;20059;-15
2022/12/04 07:53:41;;;;;;;4.18;2.40;;;9.30;88.70;;;;;;5054651;28;20024;-14
2022/12/04 07:56:08;;;;;;;5.60;2.80;;;9.40;88.50;;;;;;5037132;28;20032;-15
2022/12/04 07:58:34;;;;;;;5.30;3.05;;;9.30;88.50;;;;;;5054367;28;20067;-17
2022/12/04 08:01:19;;;;;;;6.25;3.20;;;9.40;88.50;;;;;;5054204;28;20032;-17
2022/12/04 08:03:47;;;;;;;6.03;3.63;;;9.30;88.50;;;;;;5053807;28;20024;-15
2022/12/04 08:06:13;;;;;;;4.80;2.80;;;9.30;88.50;;;;;;5054298;28;20025;-16
2022/12/04 08:08:39;;;;;;;5.15;3.45;;;9.40;88.60;;;;;;5053870;28;20060;-15
2022/12/04 08:11:10;;;;;;;4.97;2.90;;;9.40;88.60;;;;;;5053610;28;20112;-16
2022/12/04 08:13:36;;;;;;;5.85;3.13;;;9.40;88.70;;;;;;5053933;28;20025;-15
2022/12/04 08:16:08;;;;;;;5.85;3.47;;;9.40;88.60;;;;;;5053801;28;20112;-15
2022/12/04 08:18:34;;;;;;;5.20;3.17;;;9.50;88.70;;;;;;5053612;28;20056;-14
2022/12/04 08:21:07;;;;;;;5.00;2.95;;;9.50;88.60;;;;;;5053698;28;20025;-15
2022/12/04 08:23:34;;;;;;;4.75;2.97;;;9.60;88.30;;;;;;5053986;28;20395;-16
2022/12/04 08:26:00;;;;;;;5.85;3.42;;;9.60;88.20;;;;;;5053944;28;20032;-16
2022/12/04 08:28:27;;;;;;;4.60;2.90;;;9.70;88.00;;;;;;5053708;28;20033;-15
2022/12/04 08:30:53;;;;;;;5.20;3.08;;;9.70;88.00;;;;;;5053340;28;20030;-16
2022/12/04 08:33:19;;;;;;;4.82;3.28;;;9.80;87.70;;;;;;5035759;28;20031;-15
2022/12/04 08:35:45;;;;;;;5.50;2.95;;;9.80;87.60;;;;;;5053693;28;20028;-17
2022/12/04 08:38:11;;;;;;;4.50;2.78;;;9.80;87.40;;;;;;5053633;28;20029;-16
2022/12/04 08:40:37;;;;;;;4.40;2.90;;;9.80;87.20;;;;;;5053322;28;20078;-16
2022/12/04 08:43:03;;;;;;;5.07;3.25;;;9.90;86.90;;;;;;5053158;28;20380;-17
2022/12/04 08:45:29;;;;;;;7.22;3.70;;;9.90;87.00;;;;;;5053622;28;20021;-17
2022/12/04 08:47:55;;;;;;;4.85;3.05;;;9.90;86.70;;;;;;5035095;28;20120;-15
2022/12/04 08:50:21;;;;;;;8.50;3.83;;;9.90;86.50;;;;;;5199409;22;20775;-13
2022/12/04 08:52:47;;;;;;;6.07;3.17;;;9.90;86.10;;;;;;5053422;28;20108;-15
2022/12/04 08:55:14;;;;;;;5.40;3.30;;;9.90;85.80;;;;;;5053442;28;20052;-16
2022/12/04 08:57:40;;;;;;;8.13;3.50;;;10.00;85.80;;;;;;5053005;28;20144;-15
2022/12/04 09:00:07;;;;;;;7.13;3.35;;;10.00;85.70;;;;;;5053272;28;20036;-15
2022/12/04 09:02:33;;;;;;;5.10;3.30;;;10.00;85.50;;;;;;5052972;28;20029;-16
2022/12/04 09:04:59;;;;;;;8.02;3.90;;;10.00;85.80;;;;;;5053035;28;20025;-17
2022/12/04 09:07:24;;;;;;;9.13;3.78;;;10.00;85.80;;;;;;5053131;28;20123;-15
2022/12/04 09:09:50;;;;;;;8.10;3.50;;;10.00;85.90;;;;;;5052970;28;20396;-13
2022/12/04 09:12:16;;;;;;;6.65;3.80;;;10.00;85.70;;;;;;5053180;28;20398;-16
2022/12/04 09:14:42;;;;;;;8.88;3.88;;;10.00;85.80;;;;;;5052815;28;20028;-15
2022/12/04 09:17:08;;;;;;;7.13;3.83;;;10.10;85.50;;;;;;5052515;28;20052;-15
2022/12/04 09:19:35;;;;;;;6.13;3.70;;;10.10;85.90;;;;;;5052713;28;20036;-14
2022/12/04 09:22:02;;;;;;;6.32;3.75;;;10.10;85.70;;;;;;5052716;28;20104;-17
2022/12/04 09:24:31;;;;;;;6.88;3.78;;;10.10;84.80;;;;;;5052930;28;20115;-17
2022/12/04 09:26:56;;;;;;;5.90;3.97;;;10.10;84.70;;;;;;5052535;28;20384;-17
2022/12/04 09:29:24;;;;;;;6.82;4.07;;;10.10;84.20;;;;;;5052540;28;20032;-16
2022/12/04 09:31:50;;;;;;;6.32;3.92;;;10.10;84.50;;;;;;5052876;28;20064;-15
2022/12/04 09:34:16;;;;;;;6.45;4.00;;;10.00;84.70;;;;;;5053111;28;20106;-15
2022/12/04 09:36:42;;;;;;;6.97;3.72;;;10.00;84.40;;;;;;5052741;28;20182;-16
2022/12/04 09:39:09;;;;;;;6.70;4.30;;;10.00;84.40;;;;;;5143880;22;20865;-15
2022/12/04 09:41:57;;;;;;;8.02;4.55;;;10.00;84.50;;;;;;5090836;28;20040;-14
2022/12/04 09:44:44;;;;;;;6.45;4.05;;;10.00;84.90;;;;;;5092832;28;20049;-15
2022/12/04 09:47:39;;;;;;;6.60;4.10;;;10.10;84.60;;;;;;5092861;28;20032;-15
2022/12/04 09:50:20;;;;;;;9.88;4.30;;;10.00;84.40;;;;;;5092899;28;20035;-16
2022/12/04 09:53:10;;;;;;;7.90;4.40;;;10.10;84.90;;;;;;5093054;28;20494;-17
2022/12/04 09:55:46;;;;;;;7.38;4.45;;;10.20;84.50;;;;;;5092535;28;20039;-14
2022/12/04 09:58:17;;;;;;;10.73;5.10;;;10.30;84.20;;;;;;5093025;28;20032;-14
2022/12/04 10:00:46;;;;;;;7.70;4.80;;;10.30;83.90;;;;;;5092630;28;20024;-15
2022/12/04 10:03:21;;;;;;;10.65;4.97;;;10.40;83.90;;;;;;5092844;28;20436;-15
2022/12/04 10:06:06;;;;;;;8.23;5.00;;;10.50;83.50;;;;;;5092601;28;20372;-15
2022/12/04 10:08:38;;;;;;;6.88;4.35;;;10.40;83.20;;;;;;5092740;28;20043;-16
2022/12/04 10:11:03;;;;;;;9.13;5.13;;;10.60;83.20;;;;;;5092291;28;20024;-15
2022/12/04 10:13:35;;;;;;;8.10;4.53;;;10.60;83.00;;;;;;5092488;28;20025;-15
2022/12/04 10:16:23;;;;;;;10.43;5.18;;;10.60;82.50;;;;;;5184056;22;20122;-16
2022/12/04 10:18:58;;;;;;;6.22;4.05;;;10.50;82.70;;;;;;5066303;28;20048;-15
2022/12/04 10:21:38;;;;;;;9.70;5.13;;;10.40;83.60;;;;;;5072684;28;20056;-13
2022/12/04 10:24:16;;;;;;;10.05;5.10;;;10.40;83.30;;;;;;5072174;28;20123;-14
2022/12/04 10:26:47;;;;;;;8.25;4.57;;;10.40;83.60;;;;;;5075205;28;20028;-16
2022/12/04 10:29:23;;;;;;;9.68;5.07;;;10.30;83.50;;;;;;5076022;28;20048;-16
2022/12/04 10:31:54;;;;;;;7.65;4.47;;;10.30;83.40;;;;;;5076060;28;20063;-16
2022/12/04 10:34:27;;;;;;;10.52;5.30;;;10.20;83.70;;;;;;5076135;28;20410;-12
2022/12/04 10:37:03;;;;;;;7.10;4.70;;;10.10;83.30;;;;;;5075849;28;20135;-16
2022/12/04 10:39:54;;;;;;;7.65;4.50;;;10.20;83.20;;;;;;5075608;28;20115;-14
2022/12/04 10:42:40;;;;;;;8.18;4.80;;;10.10;83.40;;;;;;5075682;28;20102;-15
2022/12/04 10:45:06;;;;;;;8.75;5.32;;;10.20;83.30;;;;;;5075436;28;20029;-16
2022/12/04 10:47:33;;;;;;;9.02;5.22;;;10.10;83.60;;;;;;5075340;28;20025;-16
2022/12/04 10:50:04;;;;;;;8.68;5.25;;;10.10;83.50;;;;;;5076123;28;20044;-15
2022/12/04 10:52:30;;;;;;;8.93;5.30;;;10.10;83.10;;;;;;5075446;28;20549;-18
2022/12/04 10:54:58;;;;;;;12.48;5.25;;;10.00;83.20;;;;;;5075216;28;20028;-15
2022/12/04 10:57:43;;;;;;;10.02;5.70;;;10.00;83.20;;;;;;5075342;28;20541;-16
2022/12/04 11:00:30;;;;;;;10.00;5.95;;;10.00;83.80;;;;;;5075350;28;20081;-17
2022/12/04 11:03:08;;;;;;;9.55;5.72;;;10.20;83.80;;;;;;5075653;28;20035;-15
2022/12/04 11:05:42;;;;;;;9.43;5.18;;;10.30;83.60;;;;;;5075278;28;20029;-16
2022/12/04 11:08:21;;;;;;;8.30;4.82;;;10.40;83.40;;;;;;5075207;28;20040;-17
2022/12/04 11:11:00;;;;;;;8.80;5.75;;;10.40;82.80;;;;;;5074983;28;20472;-25
2022/12/04 11:13:27;;;;;;;7.82;5.20;;;10.40;82.40;;;;;;5075003;28;20181;-15
2022/12/04 11:15:55;;;;;;;10.00;5.65;;;10.30;82.50;;;;;;5074886;28;20063;-17
2022/12/04 11:18:25;;;;;;;9.23;5.88;;;10.30;82.70;;;;;;5074776;28;20076;-17
2022/12/04 11:21:04;;;;;;;9.90;5.72;;;10.30;82.80;;;;;;5074903;28;20031;-17
2022/12/04 11:23:41;;;;;;;9.48;5.78;;;10.30;83.20;;;;;;5075314;28;20029;-15
2022/12/04 11:26:08;;;;;;;8.57;5.53;;;10.20;83.00;;;;;;5074831;28;20102;-13
2022/12/04 11:28:35;;;;;;;10.77;6.00;;;10.30;82.90;;;;;;5074875;28;20025;-14
2022/12/04 11:31:04;;;;;;;8.90;5.40;;;10.20;83.60;;;;;;5074887;28;20020;-15
2022/12/04 11:33:39;;;;;;;9.93;6.38;;;10.20;83.10;;;;;;5074654;28;20531;-15
2022/12/04 11:36:35;;;;;;;9.75;6.00;;;10.30;83.40;;;;;;5074416;28;20476;-16
2022/12/04 11:39:04;;;;;;;11.43;6.45;;;10.20;83.10;;;;;;5070758;28;20068;-14
2022/12/04 11:41:31;;;;;;;8.13;5.50;;;10.20;83.00;;;;;;5074543;28;20514;-17
2022/12/04 11:43:58;;;;;;;9.68;5.75;;;10.00;82.60;;;;;;5074465;28;20507;-17
2022/12/04 11:46:27;;;;;;;10.00;6.25;;;10.00;82.90;;;;;;5074499;28;20017;-16
2022/12/04 11:48:53;;;;;;;9.77;6.10;;;9.90;83.10;;;;;;5074537;28;20028;-15
2022/12/04 11:51:57;;;;;;;9.75;5.85;;;9.90;83.10;;;;;;5074467;28;20545;-15
2022/12/04 11:54:38;;;;;;;11.40;6.97;;;9.80;83.30;;;;;;5073010;28;20025;-15
2022/12/04 11:57:58;;;;;;;10.40;6.47;;;9.70;83.50;;;;;;5074382;28;20074;-15
2022/12/04 12:00:26;;;;;;;11.38;6.82;;;9.70;83.70;;;;;;5056880;28;20028;-16
2022/12/04 12:03:14;;;;;;;12.38;6.78;;;9.70;83.60;;;;;;5073840;28;20391;-16
2022/12/04 12:05:52;;;;;;;9.57;6.90;;;9.70;83.60;;;;;;5074340;28;20145;-15
2022/12/04 12:08:27;;;;;;;10.77;6.50;;;9.60;83.80;;;;;;5072740;28;20037;-15
2022/12/04 12:11:11;;;;;;;12.73;6.55;;;9.60;84.00;;;;;;5073790;28;20064;-15
2022/12/04 12:13:56;;;;;;;10.65;6.45;;;9.60;84.50;;;;;;5073951;28;20025;-15
2022/12/04 12:16:40;;;;;;;10.75;6.65;;;9.60;84.60;;;;;;5073800;28;20407;-14
2022/12/04 12:19:48;;;;;;;11.32;6.47;;;9.60;84.60;;;;;;5073594;28;20028;-16
2022/12/04 12:22:24;;;;;;;10.13;6.22;;;9.60;85.00;;;;;;5074031;28;20016;-14
2022/12/04 12:25:32;;;;;;;10.70;6.45;;;9.50;85.40;;;;;;5073503;28;20132;-13
2022/12/04 12:28:11;;;;;;;10.77;6.32;;;9.50;85.50;;;;;;5074189;28;20059;-16
2022/12/04 12:31:03;;;;;;;11.38;6.53;;;9.50;85.50;;;;;;5074444;28;20024;-16
2022/12/04 12:33:38;;;;;;;10.30;6.47;;;9.40;85.90;;;;;;5054919;28;20028;-15
2022/12/04 12:36:12;;;;;;;9.93;5.85;;;9.40;86.00;;;;;;5073440;28;20059;-14
2022/12/04 12:38:55;;;;;;;12.02;7.10;;;9.40;86.30;;;;;;5073477;28;20017;-14
2022/12/04 12:41:31;;;;;;;11.07;6.50;;;9.40;86.40;;;;;;5073833;28;20388;-15
2022/12/04 12:44:24;;;;;;;12.05;6.30;;;9.40;86.60;;;;;;5073415;28;20484;-16
2022/12/04 12:46:59;;;;;;;10.32;6.15;;;9.30;86.60;;;;;;5072992;28;20024;-15
2022/12/04 12:49:36;;;;;;;9.27;5.80;;;9.40;86.50;;;;;;5072819;28;20112;-15
2022/12/04 12:52:16;;;;;;;11.50;6.90;;;9.40;86.50;;;;;;5073132;28;20475;-16
2022/12/04 12:54:54;;;;;;;10.07;6.38;;;9.30;86.80;;;;;;5073374;28;20472;-14
2022/12/04 12:57:43;;;;;;;12.02;6.68;;;9.30;86.80;;;;;;5173076;22;20105;-15
2022/12/04 13:00:12;;;;;;;9.52;5.75;;;9.30;86.90;;;;;;5113651;28;20110;-14
2022/12/04 13:02:42;;;;;;;12.52;6.13;;;9.30;87.10;;;;;;5200310;22;20042;-16
2022/12/04 13:05:12;;;;;;;10.20;5.78;;;9.30;87.10;;;;;;5206017;22;20056;-15
2022/12/04 13:10:32;;;;;;;11.30;6.38;;;9.30;87.20;;;;;;5189339;22;20284;-15
2022/12/04 13:13:23;;;;;;;10.18;6.25;;;9.30;87.10;;;;;;5073060;28;20479;-16
2022/12/04 13:16:07;;;;;;;10.23;6.25;;;9.30;87.30;;;;;;5072857;28;20017;-15
2022/12/04 13:18:48;;;;;;;11.38;6.88;;;9.40;87.40;;;;;;5128757;22;20024;-17
2022/12/04 13:21:43;;;;;;;10.45;6.93;;;9.40;87.30;;;;;;5051937;28;20041;-17
2022/12/04 13:24:40;;;;;;;12.57;7.25;;;9.40;87.40;;;;;;5176333;22;20051;-14
2022/12/04 13:27:39;;;;;;;11.30;6.53;;;9.40;87.40;;;;;;5180079;22;20147;-17
2022/12/04 13:30:45;;;;;;;10.13;6.28;;;9.50;87.40;;;;;;5093286;28;20033;-17
2022/12/04 13:33:29;;;;;;;11.52;6.53;;;9.50;87.30;;;;;;5084708;28;20058;-15
2022/12/04 13:36:14;;;;;;;10.35;6.70;;;9.50;87.30;;;;;;5092750;28;20390;-16
2022/12/04 13:38:59;;;;;;;11.50;6.40;;;9.50;87.20;;;;;;5092813;28;20027;-16